Time;durP1;ratioP1;P1;durP2;ratioP2;P2;SDS_P1;SDS_P2;PMS_P1;PMS_P2;Temp;Humidity;BMP_temperature;BMP_pressure;BME280_temperature;BME280_humidity;BME280_pressure;Samples;Min_cycle;Max_cycle;Signal;HPM_P1;HPM_P2
2022/04/24 00:01:27;;;;;;;2.90;2.80;;;;;;;11.96;47.69;99417.97;4939986;28;20019;-70
2022/04/24 00:03:53;;;;;;;2.90;2.70;;;;;;;11.96;47.90;99418.78;4952547;28;20283;-73
2022/04/24 00:06:18;;;;;;;2.55;2.45;;;;;;;11.97;47.94;99419.59;4950104;28;20753;-71
2022/04/24 00:08:43;;;;;;;2.80;2.70;;;;;;;11.90;47.85;99411.50;4917614;28;20768;-71
2022/04/24 00:11:09;;;;;;;2.90;2.70;;;;;;;11.89;47.93;99409.84;4920387;28;20030;-71
2022/04/24 00:13:38;;;;;;;2.72;2.63;;;;;;;11.90;48.10;99408.84;4940727;28;20027;-71
2022/04/24 00:16:05;;;;;;;2.90;2.80;;;;;;;11.92;48.29;99404.19;4933477;28;20019;-72
2022/04/24 00:18:31;;;;;;;3.13;3.03;;;;;;;11.86;48.01;99403.06;4937978;28;20019;-72
2022/04/24 00:20:56;;;;;;;2.90;2.80;;;;;;;11.89;48.27;99401.91;4926852;28;20809;-71
2022/04/24 00:23:22;;;;;;;2.97;2.88;;;;;;;11.93;48.31;99407.66;4936646;28;20328;-70
2022/04/24 00:25:47;;;;;;;3.20;2.97;;;;;;;11.81;48.48;99405.44;4933834;28;20019;-71
2022/04/24 00:28:13;;;;;;;3.10;2.90;;;;;;;11.84;48.76;99406.91;4919661;28;20022;-71
2022/04/24 00:30:38;;;;;;;3.10;2.80;;;;;;;11.88;48.48;99408.19;4918088;28;20046;-71
2022/04/24 00:33:04;;;;;;;3.20;3.10;;;;;;;11.88;48.35;99405.53;4936013;28;20805;-70
2022/04/24 00:35:31;;;;;;;2.90;2.80;;;;;;;11.80;48.30;99398.50;4921858;28;20015;-72
2022/04/24 00:37:56;;;;;;;3.42;3.17;;;;;;;11.78;48.97;99394.38;4938568;28;20007;-71
2022/04/24 00:40:22;;;;;;;2.90;2.80;;;;;;;11.81;48.84;99396.66;4948500;28;21649;-71
2022/04/24 00:42:47;;;;;;;3.47;3.13;;;;;;;11.82;48.55;99396.47;4948007;28;20018;-71
2022/04/24 00:45:13;;;;;;;3.40;3.20;;;;;;;11.82;48.36;99399.13;4935042;28;20014;-73
2022/04/24 00:47:38;;;;;;;3.47;3.17;;;;;;;11.74;48.58;99393.88;4921608;28;20992;-71
2022/04/24 00:50:05;;;;;;;3.15;2.90;;;;;;;11.74;48.95;99395.72;4943984;28;20788;-71
2022/04/24 00:52:30;;;;;;;3.35;3.15;;;;;;;11.76;48.78;99385.75;4932520;28;20085;-71
2022/04/24 00:54:56;;;;;;;3.95;3.15;;;;;;;11.77;48.74;99388.22;4951502;28;20496;-72
2022/04/24 00:57:24;;;;;;;3.65;3.35;;;;;;;11.81;48.47;99394.81;4957277;28;20048;-70
2022/04/24 00:59:49;;;;;;;3.22;3.13;;;;;;;11.74;48.83;99387.78;4950472;28;20421;-70
2022/04/24 01:02:14;;;;;;;3.65;3.30;;;;;;;11.72;48.83;99382.66;4950315;28;20022;-67
2022/04/24 01:04:40;;;;;;;3.25;3.15;;;;;;;11.67;49.16;99382.34;4950824;28;20458;-71
2022/04/24 01:07:05;;;;;;;3.42;3.13;;;;;;;11.67;48.98;99385.81;4959727;28;20071;-70
2022/04/24 01:09:34;;;;;;;3.20;3.10;;;;;;;11.69;48.89;99380.38;4957274;28;20013;-71
2022/04/24 01:11:59;;;;;;;2.75;2.65;;;;;;;11.71;49.12;99378.34;4958508;28;20549;-71
2022/04/24 01:14:25;;;;;;;3.10;3.00;;;;;;;11.63;49.07;99370.47;4938718;28;20831;-71
2022/04/24 01:16:51;;;;;;;3.42;2.97;;;;;;;11.61;49.13;99368.00;4943394;28;20126;-71
2022/04/24 01:19:19;;;;;;;3.05;2.95;;;;;;;11.73;48.57;99359.63;4942916;28;20021;-70
2022/04/24 01:21:45;;;;;;;3.22;3.10;;;;;;;11.72;48.53;99358.81;4956061;28;20221;-71
2022/04/24 01:24:11;;;;;;;3.28;3.08;;;;;;;11.82;48.41;99358.56;4922817;28;20011;-71
2022/04/24 01:26:37;;;;;;;3.40;3.13;;;;;;;11.75;48.66;99362.94;4953324;28;20015;-72
2022/04/24 01:29:03;;;;;;;3.88;3.35;;;;;;;11.72;48.46;99357.97;4944626;28;20007;-72
2022/04/24 01:31:28;;;;;;;3.60;3.40;;;;;;;11.69;48.79;99353.88;4953014;28;20570;-72
2022/04/24 01:33:54;;;;;;;3.88;3.20;;;;;;;11.65;48.72;99348.09;4952820;28;20932;-72
2022/04/24 01:36:19;;;;;;;3.30;3.10;;;;;;;11.60;48.73;99357.56;4958699;28;20025;-72
2022/04/24 01:38:45;;;;;;;3.50;3.30;;;;;;;11.64;48.93;99353.56;4958674;28;20026;-71
2022/04/24 01:41:10;;;;;;;3.20;3.00;;;;;;;11.62;49.02;99352.91;4939273;28;20827;-72
2022/04/24 01:43:36;;;;;;;3.00;2.90;;;;;;;11.63;48.77;99352.75;4955540;28;20199;-72
2022/04/24 01:46:04;;;;;;;5.95;3.20;;;;;;;11.66;49.13;99360.34;4955293;28;20821;-71
2022/04/24 01:48:29;;;;;;;3.53;3.33;;;;;;;11.55;49.37;99359.94;4956868;28;20121;-71
2022/04/24 01:50:54;;;;;;;3.30;3.00;;;;;;;11.66;48.74;99355.03;4955518;28;20891;-72
2022/04/24 01:53:20;;;;;;;3.50;3.20;;;;;;;11.63;49.04;99354.56;4969401;28;20281;-71
2022/04/24 01:55:46;;;;;;;3.30;3.20;;;;;;;11.55;49.29;99357.28;4951632;28;20805;-72
2022/04/24 01:58:11;;;;;;;3.20;3.10;;;;;;;11.56;49.38;99362.38;4954002;28;20039;-71
2022/04/24 02:00:36;;;;;;;3.38;3.20;;;;;;;11.48;49.23;99354.53;4951972;28;20014;-71
2022/04/24 02:03:02;;;;;;;3.38;3.17;;;;;;;11.45;49.42;99357.50;4954082;28;20011;-74
2022/04/24 02:05:27;;;;;;;3.40;3.17;;;;;;;11.55;48.90;99355.47;4947945;28;20017;-71
2022/04/24 02:07:52;;;;;;;3.40;3.30;;;;;;;11.37;49.15;99355.75;4966513;28;20804;-71
2022/04/24 02:10:18;;;;;;;3.53;3.33;;;;;;;11.30;49.65;99355.63;4935063;28;20041;-72
2022/04/24 02:12:44;;;;;;;3.63;3.42;;;;;;;11.25;49.77;99352.69;4969921;28;20050;-71
2022/04/24 02:15:10;;;;;;;3.70;3.50;;;;;;;11.31;49.85;99359.94;4961633;28;20026;-71
2022/04/24 02:17:35;;;;;;;3.40;3.30;;;;;;;11.31;49.66;99348.53;4916279;28;20003;-72
2022/04/24 02:20:01;;;;;;;3.38;3.28;;;;;;;11.22;50.38;99354.88;4931714;28;20533;-71
2022/04/24 02:22:33;;;;;;;3.30;3.20;;;;;;;11.22;50.46;99355.69;4946267;28;20777;-71
2022/04/24 02:24:59;;;;;;;3.58;3.47;;;;;;;11.29;50.01;99351.31;4950547;28;20079;-71
2022/04/24 02:27:24;;;;;;;3.85;3.60;;;;;;;11.21;50.21;99363.78;4932999;28;20011;-71
2022/04/24 02:29:50;;;;;;;3.38;3.20;;;;;;;11.11;50.63;99359.56;4950566;28;20554;-71
2022/04/24 02:32:15;;;;;;;3.63;3.42;;;;;;;11.10;50.51;99354.44;4950717;28;20286;-72
2022/04/24 02:34:40;;;;;;;3.90;3.65;;;;;;;10.94;50.92;99356.19;4931989;28;20733;-71
2022/04/24 02:37:06;;;;;;;4.10;3.90;;;;;;;10.92;51.17;99357.34;4950121;28;20105;-71
2022/04/24 02:39:31;;;;;;;4.22;3.90;;;;;;;10.94;51.08;99350.91;4978928;28;20018;-71
2022/04/24 02:41:57;;;;;;;4.10;3.90;;;;;;;10.81;51.46;99346.13;4980494;28;20029;-70
2022/04/24 02:44:22;;;;;;;4.15;3.90;;;;;;;10.92;51.24;99342.28;4975403;28;20204;-71
2022/04/24 02:46:47;;;;;;;3.90;3.70;;;;;;;10.93;51.55;99351.88;4974327;28;20389;-71
2022/04/24 02:49:13;;;;;;;4.30;3.90;;;;;;;10.81;52.18;99340.84;4945707;28;20018;-71
2022/04/24 02:51:38;;;;;;;3.95;3.75;;;;;;;10.91;51.75;99353.88;4959075;28;20162;-70
2022/04/24 02:54:03;;;;;;;4.50;4.20;;;;;;;10.85;51.50;99341.34;4977365;28;20123;-72
2022/04/24 02:56:29;;;;;;;4.40;4.20;;;;;;;10.85;52.09;99343.16;4960467;28;20011;-71
2022/04/24 02:58:54;;;;;;;4.20;4.00;;;;;;;10.79;52.00;99342.03;4973461;28;20018;-71
2022/04/24 03:01:21;;;;;;;4.57;4.22;;;;;;;10.71;52.25;99344.72;4971581;28;20033;-71
2022/04/24 03:03:49;;;;;;;4.72;4.25;;;;;;;10.69;51.99;99341.41;4962928;28;20067;-71
2022/04/24 03:06:15;;;;;;;4.30;4.10;;;;;;;10.75;51.93;99348.66;4955498;28;21002;-72
2022/04/24 03:08:40;;;;;;;4.55;4.28;;;;;;;10.64;52.53;99348.03;4954388;28;20088;-73
2022/04/24 03:11:06;;;;;;;4.60;4.30;;;;;;;10.62;52.37;99342.09;4971748;28;20045;-72
2022/04/24 03:13:31;;;;;;;4.30;4.05;;;;;;;10.63;52.45;99340.28;4962481;28;20103;-71
2022/04/24 03:15:56;;;;;;;4.30;4.10;;;;;;;10.59;52.58;99342.44;4960798;28;20023;-71
2022/04/24 03:18:22;;;;;;;4.68;4.38;;;;;;;10.56;52.96;99341.97;4972015;28;20003;-72
2022/04/24 03:20:47;;;;;;;4.32;4.13;;;;;;;10.54;53.17;99339.47;4966153;28;20007;-71
2022/04/24 03:23:13;;;;;;;4.40;4.10;;;;;;;10.54;52.92;99344.78;4939709;28;20911;-72
2022/04/24 03:25:38;;;;;;;4.20;4.00;;;;;;;10.56;52.86;99340.16;4936269;28;20077;-71
2022/04/24 03:28:04;;;;;;;4.50;4.30;;;;;;;10.61;52.66;99337.81;4939604;28;20025;-71
2022/04/24 03:30:29;;;;;;;4.50;4.30;;;;;;;10.59;52.81;99342.44;4955581;28;20014;-72
2022/04/24 03:32:54;;;;;;;4.60;4.30;;;;;;;10.57;53.14;99333.03;4971489;28;20034;-72
2022/04/24 03:35:20;;;;;;;4.55;4.35;;;;;;;10.54;53.10;99336.84;4971331;28;20031;-72
2022/04/24 03:37:45;;;;;;;4.53;4.22;;;;;;;10.38;53.21;99335.09;4964590;28;20263;-72
2022/04/24 03:40:11;;;;;;;4.60;4.40;;;;;;;10.27;53.83;99327.50;4926244;28;20037;-72
2022/04/24 03:42:36;;;;;;;4.85;4.55;;;;;;;10.22;53.55;99333.25;4929948;28;20328;-72
2022/04/24 03:45:02;;;;;;;4.63;4.32;;;;;;;10.22;54.09;99333.25;4967231;28;20019;-72
2022/04/24 03:47:27;;;;;;;4.80;4.50;;;;;;;10.24;53.90;99331.28;4965057;28;20077;-72
2022/04/24 03:49:52;;;;;;;5.13;4.82;;;;;;;10.40;53.77;99324.34;4972241;28;20488;-71
2022/04/24 03:52:18;;;;;;;4.80;4.50;;;;;;;10.43;53.64;99337.22;4957983;28;20069;-71
2022/04/24 03:54:43;;;;;;;5.25;4.50;;;;;;;10.30;53.89;99332.44;4972177;28;20026;-71
2022/04/24 03:57:09;;;;;;;4.60;4.25;;;;;;;10.30;53.77;99341.19;4957569;28;20011;-71
2022/04/24 03:59:35;;;;;;;4.72;4.53;;;;;;;10.20;54.60;99339.75;4971149;28;20116;-71
2022/04/24 04:02:00;;;;;;;4.80;4.50;;;;;;;10.17;54.46;99343.53;4955482;28;20507;-71
2022/04/24 04:04:26;;;;;;;5.13;4.80;;;;;;;10.30;54.42;99340.38;4954483;28;20416;-71
2022/04/24 04:06:52;;;;;;;5.47;5.10;;;;;;;10.11;54.28;99344.19;4961595;28;20015;-70
2022/04/24 04:09:17;;;;;;;5.20;4.68;;;;;;;9.93;54.98;99347.88;4973663;28;20013;-70
2022/04/24 04:11:42;;;;;;;5.13;4.72;;;;;;;10.08;54.56;99347.19;4953756;28;20380;-71
2022/04/24 04:14:08;;;;;;;5.18;4.88;;;;;;;9.99;54.37;99351.66;4935484;28;20512;-71
2022/04/24 04:16:34;;;;;;;5.50;5.10;;;;;;;9.90;55.06;99350.00;4937984;28;20006;-71
2022/04/24 04:18:59;;;;;;;5.47;5.18;;;;;;;9.94;55.03;99344.25;4954716;28;20032;-71
2022/04/24 04:21:24;;;;;;;5.72;5.32;;;;;;;9.82;54.98;99348.22;4959502;28;20027;-70
2022/04/24 04:23:50;;;;;;;5.93;5.53;;;;;;;9.82;55.63;99352.69;4952109;28;20079;-72
2022/04/24 04:26:18;;;;;;;5.45;5.07;;;;;;;9.78;55.31;99349.53;4950735;28;20387;-71
2022/04/24 04:28:45;;;;;;;5.75;5.35;;;;;;;9.75;55.68;99348.03;4948991;28;20030;-70
2022/04/24 04:31:11;;;;;;;6.20;5.50;;;;;;;9.80;54.98;99358.13;4952750;28;20463;-71
2022/04/24 04:33:37;;;;;;;5.70;5.30;;;;;;;9.89;54.99;99362.41;4934323;28;20043;-71
2022/04/24 04:36:02;;;;;;;5.35;4.95;;;;;;;9.93;55.13;99347.06;4929031;28;20015;-71
2022/04/24 04:38:27;;;;;;;5.25;4.95;;;;;;;9.86;55.43;99357.47;4936931;28;20825;-71
2022/04/24 04:40:53;;;;;;;5.85;5.45;;;;;;;9.93;54.82;99362.91;4932704;28;20841;-72
2022/04/24 04:43:18;;;;;;;5.90;5.60;;;;;;;9.91;55.45;99365.72;4923180;28;20364;-72
2022/04/24 04:45:44;;;;;;;5.90;5.32;;;;;;;10.05;54.70;99360.72;4940613;28;20006;-72
2022/04/24 04:48:09;;;;;;;6.03;5.53;;;;;;;9.91;55.15;99376.28;4977723;28;20030;-70
2022/04/24 04:50:34;;;;;;;6.30;5.80;;;;;;;9.83;55.62;99365.72;4956800;28;20006;-70
2022/04/24 04:53:00;;;;;;;5.88;5.38;;;;;;;9.87;55.73;99369.69;4957795;28;20151;-70
2022/04/24 04:55:25;;;;;;;5.90;5.50;;;;;;;9.87;55.75;99376.78;4956408;28;20380;-71
2022/04/24 04:57:51;;;;;;;5.72;5.43;;;;;;;9.89;55.67;99377.44;4956253;28;20010;-71
2022/04/24 05:00:17;;;;;;;6.60;5.50;;;;;;;9.86;55.74;99375.94;4938707;28;20038;-71
2022/04/24 05:02:43;;;;;;;5.82;5.43;;;;;;;9.81;55.71;99386.19;4978216;28;20026;-72
2022/04/24 05:05:09;;;;;;;9.35;5.82;;;;;;;9.86;55.20;99383.06;4977049;28;20267;-72
2022/04/24 05:07:37;;;;;;;7.20;5.78;;;;;;;9.73;55.64;99378.25;4978001;28;20874;-72
2022/04/24 05:10:04;;;;;;;6.20;5.80;;;;;;;9.76;56.30;99391.16;4976473;28;20199;-72
2022/04/24 05:12:30;;;;;;;5.95;5.55;;;;;;;9.83;55.73;99389.50;4979773;28;20192;-73
2022/04/24 05:15:08;;;;;;;6.32;5.80;;;;;;;9.90;55.71;99392.28;4989755;28;20010;-73
2022/04/24 05:17:34;;;;;;;6.30;5.65;;;;;;;9.97;55.35;99395.94;4983099;28;20021;-72
2022/04/24 05:20:00;;;;;;;6.30;5.80;;;;;;;9.94;55.66;99391.81;4978460;28;20011;-72
2022/04/24 05:22:26;;;;;;;6.60;6.00;;;;;;;9.92;56.07;99388.50;4924401;28;20478;-73
2022/04/24 05:24:51;;;;;;;6.70;6.20;;;;;;;9.88;55.82;99395.09;4950984;28;20508;-73
2022/04/24 05:27:17;;;;;;;6.88;6.10;;;;;;;10.06;55.30;99399.41;4950364;28;20440;-74
2022/04/24 05:29:42;;;;;;;5.82;5.43;;;;;;;10.17;54.99;99401.69;4936609;28;20022;-73
2022/04/24 05:32:08;;;;;;;5.90;5.50;;;;;;;10.20;55.17;99403.19;4938936;28;20011;-73
2022/04/24 05:34:33;;;;;;;6.50;6.03;;;;;;;10.15;55.31;99408.94;4920186;28;20030;-74
2022/04/24 05:36:59;;;;;;;6.53;5.72;;;;;;;10.20;55.13;99411.94;4939163;28;20527;-73
2022/04/24 05:39:24;;;;;;;6.10;5.70;;;;;;;10.25;54.84;99408.78;4935434;28;20187;-73
2022/04/24 05:41:49;;;;;;;6.72;6.25;;;;;;;10.35;54.38;99420.06;4970403;28;20023;-74
2022/04/24 05:44:15;;;;;;;6.35;5.95;;;;;;;10.35;54.29;99413.91;4945086;28;20691;-73
2022/04/24 05:46:40;;;;;;;6.90;6.38;;;;;;;10.30;54.71;99425.78;4941570;28;20587;-73
2022/04/24 05:49:06;;;;;;;6.43;6.03;;;;;;;10.45;54.62;99425.97;4934980;28;20170;-73
2022/04/24 05:51:33;;;;;;;6.15;5.65;;;;;;;10.63;54.24;99424.91;4942048;28;20007;-73
2022/04/24 05:53:59;;;;;;;6.47;5.90;;;;;;;10.81;53.42;99435.28;4969342;28;20046;-72
2022/04/24 05:56:24;;;;;;;6.45;6.05;;;;;;;10.76;54.20;99427.03;4970688;28;20605;-72
2022/04/24 05:58:49;;;;;;;6.75;6.25;;;;;;;10.83;54.06;99433.31;4974045;28;20636;-73
2022/04/24 06:01:15;;;;;;;6.55;5.95;;;;;;;10.92;53.44;99437.56;4970907;28;20003;-73
2022/04/24 06:03:40;;;;;;;7.88;6.30;;;;;;;11.05;53.63;99433.56;4953125;28;20022;-72
2022/04/24 06:06:06;;;;;;;6.60;6.10;;;;;;;11.09;53.29;99435.69;4962193;28;20022;-73
2022/04/24 06:08:32;;;;;;;6.50;6.00;;;;;;;11.26;52.35;99427.66;4960122;28;20384;-72
2022/04/24 06:10:57;;;;;;;6.63;6.13;;;;;;;11.29;53.22;99422.00;4935371;28;20611;-73
2022/04/24 06:13:22;;;;;;;6.72;6.32;;;;;;;11.40;52.73;99429.56;4935778;28;20030;-73
2022/04/24 06:15:48;;;;;;;6.85;6.35;;;;;;;11.51;51.98;99431.00;4954930;28;20079;-73
2022/04/24 06:18:13;;;;;;;6.50;6.10;;;;;;;11.58;51.90;99423.19;4956328;28;20108;-72
2022/04/24 06:20:39;;;;;;;6.68;6.22;;;;;;;11.57;51.15;99427.63;4951376;28;20023;-72
2022/04/24 06:23:04;;;;;;;6.57;6.18;;;;;;;11.66;52.19;99429.25;4952754;28;20010;-72
2022/04/24 06:25:33;;;;;;;6.40;6.00;;;;;;;11.81;52.09;99428.47;4951843;28;20530;-73
2022/04/24 06:27:59;;;;;;;7.00;6.50;;;;;;;11.85;51.43;99422.63;4953459;28;20058;-72
2022/04/24 06:30:26;;;;;;;6.40;5.90;;;;;;;11.90;52.18;99423.91;4954359;28;20007;-74
2022/04/24 06:32:52;;;;;;;6.10;5.60;;;;;;;11.95;51.57;99433.03;4950841;28;20042;-73
2022/04/24 06:35:17;;;;;;;6.45;6.05;;;;;;;12.15;51.27;99425.38;4936418;28;20026;-72
2022/04/24 06:37:45;;;;;;;6.07;5.65;;;;;;;12.34;52.01;99434.66;4941753;28;20015;-73
2022/04/24 06:40:11;;;;;;;6.40;5.80;;;;;;;12.33;50.85;99425.06;4955929;28;20050;-74
2022/04/24 06:42:53;;;;;;;6.35;5.95;;;;;;;12.49;50.12;99425.91;4957039;28;20459;-74
2022/04/24 06:45:25;;;;;;;6.00;5.60;;;;;;;12.54;49.92;99429.66;4972658;28;20877;-73
2022/04/24 06:48:00;;;;;;;6.13;5.63;;;;;;;12.85;50.11;99427.84;4960943;28;20018;-73
2022/04/24 06:50:26;;;;;;;6.00;5.60;;;;;;;13.07;49.26;99434.03;4948550;28;20014;-72
2022/04/24 06:53:05;;;;;;;6.03;5.63;;;;;;;13.19;48.83;99429.06;4978849;28;20305;-73
2022/04/24 06:55:31;;;;;;;5.63;5.28;;;;;;;13.38;48.43;99438.31;4960614;28;20025;-73
2022/04/24 06:57:57;;;;;;;6.00;5.60;;;;;;;13.39;48.99;99427.47;4943016;28;20022;-74
2022/04/24 07:00:23;;;;;;;5.70;5.25;;;;;;;13.43;48.06;99430.59;4944313;28;20057;-73
2022/04/24 07:02:49;;;;;;;6.18;5.20;;;;;;;13.37;48.72;99429.53;4963320;28;20026;-73
2022/04/24 07:05:14;;;;;;;5.68;5.18;;;;;;;13.41;48.49;99429.97;4959794;28;20014;-73
2022/04/24 07:07:41;;;;;;;6.65;6.25;;;;;;;13.57;48.18;99439.53;4942332;28;20114;-73
2022/04/24 07:10:07;;;;;;;5.72;5.43;;;;;;;13.61;47.94;99448.78;4925399;28;20022;-72
2022/04/24 07:12:46;;;;;;;5.72;5.35;;;;;;;13.64;47.96;99437.78;4942872;28;20053;-74
2022/04/24 07:15:13;;;;;;;5.38;4.97;;;;;;;13.57;47.15;99434.22;4956610;28;20050;-72
2022/04/24 07:17:39;;;;;;;5.55;5.25;;;;;;;13.79;47.27;99444.88;4947290;28;20031;-73
2022/04/24 07:20:05;;;;;;;6.07;5.68;;;;;;;13.58;46.93;99449.19;4975673;28;20102;-72
2022/04/24 07:22:43;;;;;;;6.03;5.50;;;;;;;13.64;47.85;99458.22;4955703;28;20517;-74
2022/04/24 07:25:09;;;;;;;6.15;5.13;;;;;;;13.67;47.28;99442.72;4962937;28;20714;-73
2022/04/24 07:27:34;;;;;;;5.30;4.90;;;;;;;13.71;47.53;99449.28;4961049;28;20018;-72
2022/04/24 07:30:00;;;;;;;5.50;5.20;;;;;;;13.73;46.93;99447.28;4945237;28;20022;-73
2022/04/24 07:32:25;;;;;;;5.45;5.15;;;;;;;13.85;47.01;99450.25;4960325;28;20102;-73
2022/04/24 07:34:51;;;;;;;5.30;4.90;;;;;;;14.00;47.20;99452.84;4957844;28;20387;-75
2022/04/24 07:37:17;;;;;;;6.03;5.50;;;;;;;14.20;46.20;99449.50;4939643;28;20558;-73
2022/04/24 07:39:42;;;;;;;5.03;4.82;;;;;;;14.31;46.23;99454.31;4922893;28;20010;-74
2022/04/24 07:42:07;;;;;;;5.75;5.30;;;;;;;14.18;45.18;99448.91;4938970;28;20022;-74
2022/04/24 07:44:33;;;;;;;8.35;5.32;;;;;;;14.20;46.25;99452.19;4966751;28;20873;-72
2022/04/24 07:46:58;;;;;;;5.70;5.38;;;;;;;14.18;46.35;99449.72;4953519;28;21005;-73
2022/04/24 07:49:24;;;;;;;5.88;5.22;;;;;;;14.38;46.58;99447.22;4976538;28;20488;-75
2022/04/24 07:51:49;;;;;;;6.10;5.70;;;;;;;14.48;46.24;99448.72;4934907;28;20200;-72
2022/04/24 07:54:15;;;;;;;5.47;5.07;;;;;;;14.65;46.49;99449.25;4948780;28;20030;-74
2022/04/24 07:56:41;;;;;;;5.25;4.95;;;;;;;14.90;45.98;99457.59;4944138;28;20045;-73
2022/04/24 07:59:06;;;;;;;5.25;4.95;;;;;;;15.02;45.45;99445.38;4963793;28;20015;-72
2022/04/24 08:01:31;;;;;;;5.85;5.30;;;;;;;15.40;44.78;99452.91;4959147;28;20032;-75
2022/04/24 08:03:57;;;;;;;5.70;5.30;;;;;;;15.42;44.57;99444.69;4959484;28;20014;-74
2022/04/24 08:06:22;;;;;;;5.93;5.53;;;;;;;15.38;44.17;99454.13;4952413;28;20033;-74
2022/04/24 08:08:48;;;;;;;5.47;5.05;;;;;;;15.53;43.58;99461.97;4939165;28;20018;-74
2022/04/24 08:11:13;;;;;;;5.78;5.28;;;;;;;15.71;43.56;99454.22;4966039;28;20187;-73
2022/04/24 08:13:38;;;;;;;5.30;5.00;;;;;;;15.59;43.93;99456.63;4959579;28;20194;-73
2022/04/24 08:16:04;;;;;;;5.10;4.80;;;;;;;15.67;43.70;99452.16;4957388;28;20015;-72
2022/04/24 08:18:30;;;;;;;5.60;5.20;;;;;;;15.66;43.51;99450.50;4950651;28;20015;-73
2022/04/24 08:20:55;;;;;;;5.72;5.32;;;;;;;15.83;44.22;99458.97;4959210;28;20042;-74
2022/04/24 08:23:21;;;;;;;6.28;5.88;;;;;;;15.53;43.68;99453.97;4948456;28;20014;-73
2022/04/24 08:25:46;;;;;;;7.30;5.85;;;;;;;15.91;43.73;99453.47;4944078;28;20009;-73
2022/04/24 08:28:12;;;;;;;5.22;4.93;;;;;;;16.05;43.74;99457.78;4946449;28;20419;-72
2022/04/24 08:30:39;;;;;;;6.63;6.10;;;;;;;16.17;43.25;99457.97;4968150;28;20025;-72
2022/04/24 08:33:04;;;;;;;5.85;5.35;;;;;;;16.41;43.53;99453.03;4950878;28;20441;-73
2022/04/24 08:35:30;;;;;;;6.88;6.28;;;;;;;16.63;42.41;99450.97;4959624;28;20021;-72
2022/04/24 08:37:55;;;;;;;5.82;5.43;;;;;;;16.85;43.21;99454.22;4952613;28;20563;-71
2022/04/24 08:40:24;;;;;;;5.85;5.45;;;;;;;17.20;42.47;99447.75;4942688;28;20046;-71
2022/04/24 08:42:49;;;;;;;6.22;5.72;;;;;;;17.58;41.82;99449.59;4958537;28;20133;-73
2022/04/24 08:45:15;;;;;;;5.88;5.22;;;;;;;17.89;42.57;99448.78;4957053;28;20478;-71
2022/04/24 08:47:41;;;;;;;5.70;5.40;;;;;;;18.32;40.91;99458.78;4933622;28;20010;-73
2022/04/24 08:50:07;;;;;;;6.35;5.80;;;;;;;18.59;40.28;99449.69;4955272;28;20094;-72
2022/04/24 08:52:32;;;;;;;6.35;5.80;;;;;;;18.23;41.21;99459.28;4943297;28;20871;-72
2022/04/24 08:54:58;;;;;;;6.60;5.97;;;;;;;18.29;39.68;99461.06;4958165;28;20031;-71
2022/04/24 08:57:27;;;;;;;7.32;6.00;;;;;;;18.42;39.07;99449.44;4926511;28;21045;-71
2022/04/24 08:59:54;;;;;;;5.97;5.50;;;;;;;18.65;39.98;99448.81;4937303;28;20007;-71
2022/04/24 09:02:19;;;;;;;6.10;5.53;;;;;;;19.07;39.33;99454.34;4929571;28;20013;-72
2022/04/24 09:04:44;;;;;;;7.15;5.80;;;;;;;18.97;38.41;99451.38;4957769;28;20096;-72
2022/04/24 09:07:16;;;;;;;6.60;5.78;;;;;;;18.94;38.64;99468.72;4960253;28;20021;-72
2022/04/24 09:09:43;;;;;;;6.30;5.80;;;;;;;19.24;38.25;99453.75;4935485;28;20072;-71
2022/04/24 09:12:09;;;;;;;5.25;4.95;;;;;;;19.60;39.17;99452.84;4946596;28;20474;-72
2022/04/24 09:14:35;;;;;;;5.65;5.35;;;;;;;19.71;37.03;99457.44;4955657;28;20019;-71
2022/04/24 09:17:06;;;;;;;5.70;5.20;;;;;;;19.77;37.30;99453.03;4947459;28;20075;-71
2022/04/24 09:19:32;;;;;;;12.20;5.40;;;;;;;20.06;36.15;99447.84;4951002;28;20470;-72
2022/04/24 09:22:11;;;;;;;5.80;5.43;;;;;;;19.66;36.13;99446.56;4944054;28;20065;-72
2022/04/24 09:24:56;;;;;;;5.35;5.05;;;;;;;19.58;38.01;99446.06;4955028;28;20056;-73
2022/04/24 09:27:29;;;;;;;5.82;5.32;;;;;;;19.77;38.00;99447.66;4956964;28;20315;-71
2022/04/24 09:29:55;;;;;;;6.00;5.70;;;;;;;19.95;35.70;99438.72;4955815;28;20227;-71
2022/04/24 09:32:22;;;;;;;5.82;5.40;;;;;;;20.32;36.11;99453.84;4953358;28;20014;-72
2022/04/24 09:34:47;;;;;;;5.07;4.78;;;;;;;20.58;35.83;99447.19;4948126;28;20574;-72
2022/04/24 09:37:13;;;;;;;6.28;5.68;;;;;;;20.52;34.42;99440.88;4959181;28;20923;-73
2022/04/24 09:39:38;;;;;;;5.10;4.80;;;;;;;20.60;36.28;99445.06;4960768;28;20040;-72
2022/04/24 09:42:05;;;;;;;5.65;4.88;;;;;;;21.08;35.00;99446.69;4970401;28;20045;-71
2022/04/24 09:44:50;;;;;;;7.30;5.38;;;;;;;20.63;34.67;99449.16;4950402;28;20015;-72
2022/04/24 09:47:22;;;;;;;6.13;5.60;;;;;;;20.65;35.02;99436.31;4951039;28;20084;-73
2022/04/24 09:49:50;;;;;;;7.40;5.10;;;;;;;21.16;34.84;99455.44;4958935;28;20007;-73
2022/04/24 09:52:17;;;;;;;5.68;5.28;;;;;;;21.94;34.96;99443.16;4952644;28;20030;-74
2022/04/24 09:54:46;;;;;;;5.50;5.00;;;;;;;22.41;33.64;99452.00;4934353;28;20542;-74
2022/04/24 09:57:14;;;;;;;5.82;5.43;;;;;;;22.86;33.71;99453.72;4965289;28;20034;-73
2022/04/24 09:59:41;;;;;;;5.60;5.10;;;;;;;22.98;32.33;99442.78;4929607;28;20896;-74
2022/04/24 10:02:07;;;;;;;5.93;5.43;;;;;;;23.58;31.34;99443.78;4945237;28;20988;-74
2022/04/24 10:04:35;;;;;;;5.55;5.15;;;;;;;23.73;31.32;99448.50;4959524;28;20208;-74
2022/04/24 10:07:21;;;;;;;5.28;4.97;;;;;;;23.23;32.20;99450.41;4945259;28;20026;-74
2022/04/24 10:09:47;;;;;;;4.97;4.68;;;;;;;23.33;32.34;99455.91;4942781;28;20007;-73
2022/04/24 10:12:16;;;;;;;7.20;5.10;;;;;;;23.93;30.40;99444.38;4939390;28;20018;-72
2022/04/24 10:14:52;;;;;;;4.97;4.70;;;;;;;24.07;31.16;99444.75;4961559;28;20030;-74
2022/04/24 10:17:20;;;;;;;4.53;4.22;;;;;;;24.03;31.52;99449.03;4947749;28;20038;-74
2022/04/24 10:20:10;;;;;;;5.63;5.22;;;;;;;24.03;28.71;99466.09;4948481;28;22360;-73
2022/04/24 10:22:40;;;;;;;6.32;5.72;;;;;;;23.93;29.35;99450.59;4954449;28;20512;-73
2022/04/24 10:25:06;;;;;;;4.53;4.30;;;;;;;24.33;29.86;99460.09;4964008;28;20089;-73
2022/04/24 10:28:08;;;;;;;5.43;5.03;;;;;;;24.60;28.07;99451.09;4946921;28;20022;-73
2022/04/24 10:30:34;;;;;;;4.90;4.50;;;;;;;24.60;29.19;99459.22;4952629;28;20019;-74
2022/04/24 10:33:15;;;;;;;5.28;4.88;;;;;;;24.29;29.32;99464.38;4940351;28;20869;-73
2022/04/24 10:35:50;;;;;;;5.22;4.82;;;;;;;24.56;29.86;99468.09;4920737;28;20019;-73
2022/04/24 10:38:17;;;;;;;5.45;4.95;;;;;;;24.63;28.07;99458.69;4932743;28;20344;-73
2022/04/24 10:40:57;;;;;;;6.25;5.28;;;;;;;23.92;29.01;99469.78;4927487;28;20087;-72
2022/04/24 10:43:23;;;;;;;5.47;4.60;;;;;;;23.58;30.00;99473.47;4948557;28;20042;-73
2022/04/24 10:45:50;;;;;;;4.72;4.43;;;;;;;24.52;30.43;99468.63;4937545;28;20015;-73
2022/04/24 10:48:15;;;;;;;5.00;4.63;;;;;;;25.12;28.82;99468.41;4948762;28;20014;-73
2022/04/24 10:50:52;;;;;;;5.68;5.28;;;;;;;25.37;28.17;99477.75;4958905;28;20150;-75
2022/04/24 10:53:17;;;;;;;5.55;5.20;;;;;;;24.99;28.66;99468.91;4964184;28;20042;-72
2022/04/24 10:55:43;;;;;;;4.93;4.63;;;;;;;25.48;28.07;99468.56;4960541;28;20473;-73
2022/04/24 10:58:09;;;;;;;5.13;4.72;;;;;;;25.13;27.38;99466.50;4937763;28;20154;-73
2022/04/24 11:00:34;;;;;;;5.40;4.97;;;;;;;25.97;28.66;99472.69;4960980;28;20092;-74
2022/04/24 11:03:14;;;;;;;6.57;5.45;;;;;;;26.01;26.48;99478.41;4943025;28;20015;-73
2022/04/24 11:05:43;;;;;;;5.30;5.00;;;;;;;25.60;28.72;99471.03;4960535;28;20026;-73
2022/04/24 11:08:09;;;;;;;5.18;4.88;;;;;;;26.16;26.87;99459.44;4972841;28;20028;-73
2022/04/24 11:10:39;;;;;;;5.22;4.93;;;;;;;26.52;26.00;99472.16;4958462;28;20015;-73
2022/04/24 11:13:09;;;;;;;5.15;4.75;;;;;;;26.15;26.85;99476.00;4958580;28;20145;-73
2022/04/24 11:15:34;;;;;;;5.20;4.80;;;;;;;26.33;25.99;99478.13;4959370;28;20014;-73
2022/04/24 11:17:59;;;;;;;5.50;5.00;;;;;;;24.36;27.85;99469.59;4950046;28;20387;-72
2022/04/24 11:20:31;;;;;;;6.38;4.90;;;;;;;24.40;28.76;99472.59;4960673;28;20030;-73
2022/04/24 11:22:56;;;;;;;4.88;4.47;;;;;;;25.04;27.96;99471.63;4960106;28;20029;-73
2022/04/24 11:25:25;;;;;;;4.82;4.53;;;;;;;24.53;28.38;99464.81;4965167;28;20023;-73
2022/04/24 11:27:52;;;;;;;4.55;4.18;;;;;;;25.31;28.62;99467.94;4971315;28;20003;-74
2022/04/24 11:30:18;;;;;;;5.47;4.78;;;;;;;25.79;27.79;99478.63;4983430;28;20478;-73
2022/04/24 11:32:57;;;;;;;4.88;4.50;;;;;;;26.25;26.86;99484.09;4982369;28;20060;-72